Time;durP1;ratioP1;P1;durP2;ratioP2;P2;SDS_P1;SDS_P2;PMS_P1;PMS_P2;Temp;Humidity;BMP_temperature;BMP_pressure;BME280_temperature;BME280_humidity;BME280_pressure;Samples;Min_cycle;Max_cycle;Signal;HPM_P1;HPM_P2
2022/03/08 00:01:34;;;;;;;14.67;11.53;;;;;;;-1.02;nan;98689.06;5056216;28;20889;-72
2022/03/08 00:04:01;;;;;;;16.30;12.70;;;;;;;-1.10;nan;98687.09;5056566;28;20881;-72
2022/03/08 00:06:28;;;;;;;15.37;13.43;;;;;;;-1.08;nan;98686.97;5056176;28;20861;-72
2022/03/08 00:08:54;;;;;;;14.57;12.67;;;;;;;-1.04;nan;98683.16;5057122;28;20925;-71
2022/03/08 00:11:21;;;;;;;13.80;11.77;;;;;;;-1.07;nan;98688.63;5056435;28;20436;-71
2022/03/08 00:13:50;;;;;;;13.97;12.20;;;;;;;-1.10;nan;98687.09;5056327;28;20425;-71
2022/03/08 00:16:17;;;;;;;15.20;12.40;;;;;;;-1.14;nan;98680.50;5056184;28;20870;-71
2022/03/08 00:18:44;;;;;;;16.27;12.13;;;;;;;-1.05;nan;98697.97;5056259;28;20465;-72
2022/03/08 00:21:13;;;;;;;15.07;12.43;;;;;;;-1.04;nan;98697.00;5056164;28;20474;-71
2022/03/08 00:23:40;;;;;;;16.83;12.10;;;;;;;-0.94;nan;98687.44;5056370;28;20438;-71
2022/03/08 00:26:06;;;;;;;16.00;12.03;;;;;;;-0.87;nan;98690.34;5056073;28;20867;-72
2022/03/08 00:28:33;;;;;;;15.80;12.57;;;;;;;-0.95;nan;98693.59;5056251;28;20508;-72
2022/03/08 00:31:00;;;;;;;15.27;12.10;;;;;;;-0.98;nan;98690.44;5056304;28;20430;-71
2022/03/08 00:33:27;;;;;;;16.53;13.63;;;;;;;-0.99;nan;98697.44;5056193;28;20838;-71
2022/03/08 00:35:53;;;;;;;16.17;13.20;;;;;;;-1.10;nan;98702.75;5057879;28;20442;-71
2022/03/08 00:38:20;;;;;;;15.50;13.13;;;;;;;-1.18;nan;98697.34;5060287;28;20461;-71
2022/03/08 00:40:47;;;;;;;15.80;12.77;;;;;;;-1.17;nan;98700.81;5060138;28;20470;-71
2022/03/08 00:43:14;;;;;;;16.83;13.53;;;;;;;-1.22;nan;98698.56;5060217;28;20425;-71
2022/03/08 00:45:41;;;;;;;16.43;12.97;;;;;;;-1.27;nan;98695.53;5060038;28;20873;-71
2022/03/08 00:48:08;;;;;;;16.63;13.00;;;;;;;-1.39;nan;98706.97;5060073;28;20437;-71
2022/03/08 00:50:36;;;;;;;15.70;13.17;;;;;;;-1.42;nan;98704.66;5059820;28;20866;-71
2022/03/08 00:53:02;;;;;;;13.80;12.30;;;;;;;-1.34;nan;98694.41;5060112;28;20422;-71
2022/03/08 00:55:30;;;;;;;14.47;12.23;;;;;;;-1.42;nan;98696.84;5059664;28;20434;-71
2022/03/08 00:57:57;;;;;;;15.27;12.57;;;;;;;-1.37;nan;98696.44;5060024;28;20441;-71
2022/03/08 01:00:27;;;;;;;16.13;12.60;;;;;;;-1.43;nan;98692.56;5059675;28;20474;-71
2022/03/08 01:02:54;;;;;;;15.90;12.10;;;;;;;-1.33;nan;98696.06;5059831;28;20441;-71
2022/03/08 01:05:20;;;;;;;15.37;11.73;;;;;;;-1.30;nan;98693.16;5059846;28;20438;-71
2022/03/08 01:07:47;;;;;;;14.40;11.90;;;;;;;-1.18;nan;98697.34;5059494;28;20865;-72
2022/03/08 01:10:16;;;;;;;12.67;10.93;;;;;;;-1.11;nan;98688.06;5059900;28;20426;-72
2022/03/08 01:12:44;;;;;;;13.43;10.83;;;;;;;-1.18;nan;98684.31;5059465;28;20438;-72
2022/03/08 01:15:11;;;;;;;13.67;10.97;;;;;;;-1.18;nan;98691.31;5059643;28;20430;-71
2022/03/08 01:17:38;;;;;;;12.63;10.23;;;;;;;-1.16;nan;98686.81;5059342;28;20422;-72
2022/03/08 01:20:06;;;;;;;12.57;10.90;;;;;;;-1.18;nan;98683.47;5059449;28;20508;-72
2022/03/08 01:22:33;;;;;;;11.73;10.10;;;;;;;-1.23;nan;98676.06;5059514;28;20433;-72
2022/03/08 01:24:59;;;;;;;14.23;10.33;;;;;;;-1.25;nan;98671.94;5059111;28;20441;-72
2022/03/08 01:27:26;;;;;;;12.37;10.43;;;;;;;-1.23;nan;98668.22;5059377;28;20434;-72
2022/03/08 01:29:52;;;;;;;14.13;10.60;;;;;;;-1.24;nan;98668.34;5059451;28;20446;-72
2022/03/08 01:32:18;;;;;;;12.53;10.03;;;;;;;-1.31;nan;98664.63;5059272;28;20437;-72
2022/03/08 01:34:45;;;;;;;11.53;10.13;;;;;;;-1.26;nan;98665.06;5059264;28;20425;-72
2022/03/08 01:37:13;;;;;;;11.33;10.10;;;;;;;-1.46;nan;98664.16;5059185;28;20445;-72
2022/03/08 01:39:39;;;;;;;15.80;10.13;;;;;;;-1.49;nan;98669.59;5058792;28;20933;-72
2022/03/08 01:42:11;;;;;;;12.67;10.17;;;;;;;-1.50;nan;98667.13;5059152;28;20425;-72
2022/03/08 01:44:41;;;;;;;12.87;10.23;;;;;;;-1.57;nan;98661.59;5059104;28;20445;-72
2022/03/08 01:47:08;;;;;;;12.70;10.93;;;;;;;-1.69;nan;98665.25;5058359;28;20743;-72
2022/03/08 01:49:34;;;;;;;13.03;10.60;;;;;;;-1.64;nan;98659.63;5058947;28;20446;-72
2022/03/08 01:52:00;;;;;;;14.80;11.13;;;;;;;-1.68;nan;98656.47;5058933;28;20422;-72
2022/03/08 01:54:27;;;;;;;12.57;10.73;;;;;;;-1.67;nan;98657.31;5058812;28;20423;-72
2022/03/08 01:56:53;;;;;;;13.37;10.90;;;;;;;-1.76;nan;98661.50;5058815;28;20751;-72
2022/03/08 01:59:20;;;;;;;13.00;10.07;;;;;;;-1.80;nan;98648.84;5058354;28;20914;-72
2022/03/08 02:01:46;;;;;;;12.47;10.23;;;;;;;-1.71;nan;98642.88;5058642;28;20445;-72
2022/03/08 02:04:12;;;;;;;12.87;10.10;;;;;;;-1.64;nan;98646.59;5058779;28;20429;-72
2022/03/08 02:06:39;;;;;;;12.93;10.87;;;;;;;-1.72;nan;98646.44;5058744;28;20484;-72
2022/03/08 02:09:05;;;;;;;14.77;10.53;;;;;;;-1.72;nan;98644.66;5058414;28;20454;-72
2022/03/08 02:11:32;;;;;;;14.37;11.00;;;;;;;-1.74;nan;98641.34;5058623;28;20423;-71
2022/03/08 02:13:58;;;;;;;14.73;11.23;;;;;;;-1.77;nan;98633.78;5058646;28;20722;-72
2022/03/08 02:16:25;;;;;;;18.87;11.83;;;;;;;-1.79;nan;98629.66;5058240;28;20711;-71
2022/03/08 02:18:51;;;;;;;14.93;12.20;;;;;;;-1.82;nan;98625.53;5058386;28;20461;-72
2022/03/08 02:21:18;;;;;;;15.97;12.63;;;;;;;-2.04;nan;98615.22;5058374;28;20477;-72
2022/03/08 02:23:44;;;;;;;14.50;12.07;;;;;;;-2.01;nan;98614.16;5058410;28;20418;-71
2022/03/08 02:26:10;;;;;;;17.53;13.20;;;;;;;-2.01;nan;98608.94;5058400;28;20422;-71
2022/03/08 02:28:37;;;;;;;21.57;14.57;;;;;;;-2.04;nan;98604.81;5058222;28;20490;-72
2022/03/08 02:31:03;;;;;;;23.43;15.40;;;;;;;-2.04;nan;98614.41;5057963;28;20426;-72
2022/03/08 02:33:30;;;;;;;20.73;16.73;;;;;;;-2.08;nan;98610.41;5058210;28;20441;-72
2022/03/08 02:35:56;;;;;;;18.50;13.63;;;;;;;-2.08;nan;98613.84;5058173;28;20426;-71
2022/03/08 02:38:23;;;;;;;16.57;13.87;;;;;;;-2.04;nan;98604.81;5058026;28;20451;-71
2022/03/08 02:40:50;;;;;;;19.50;14.30;;;;;;;-2.14;nan;98616.13;5057742;28;20468;-72
2022/03/08 02:43:22;;;;;;;19.70;13.93;;;;;;;-2.23;nan;98619.47;5058064;28;20431;-71
2022/03/08 02:45:48;;;;;;;17.17;13.77;;;;;;;-2.06;nan;98622.34;5058028;28;20513;-71
2022/03/08 02:48:15;;;;;;;18.07;14.03;;;;;;;-2.20;nan;98620.06;5057879;28;20470;-71
2022/03/08 02:50:41;;;;;;;17.90;14.43;;;;;;;-2.30;nan;98624.34;5057937;28;20422;-72
2022/03/08 02:53:08;;;;;;;17.90;14.50;;;;;;;-2.23;nan;98616.88;5057881;28;20422;-71
2022/03/08 02:55:36;;;;;;;19.10;14.47;;;;;;;-2.28;nan;98614.66;5057801;28;20748;-71
2022/03/08 02:58:05;;;;;;;19.67;13.93;;;;;;;-2.29;nan;98610.41;5057557;28;20438;-71
2022/03/08 03:00:33;;;;;;;18.03;14.50;;;;;;;-2.38;nan;98616.38;5057588;28;20499;-71
2022/03/08 03:02:59;;;;;;;18.97;14.10;;;;;;;-2.36;nan;98608.41;5057650;28;20737;-71
2022/03/08 03:05:26;;;;;;;18.47;11.93;;;;;;;-2.28;nan;98600.81;5057514;28;20442;-72
2022/03/08 03:07:53;;;;;;;17.30;13.50;;;;;;;-2.28;nan;98598.19;5057129;28;20869;-72
2022/03/08 03:10:22;;;;;;;15.83;13.00;;;;;;;-2.21;nan;98602.78;5057322;28;20437;-72
2022/03/08 03:12:48;;;;;;;15.27;12.13;;;;;;;-2.17;nan;98592.94;5057109;28;20874;-72
2022/03/08 03:15:16;;;;;;;13.37;11.47;;;;;;;-2.12;nan;98598.59;5057353;28;20756;-72
2022/03/08 03:17:43;;;;;;;15.70;11.93;;;;;;;-2.14;nan;98590.91;5057340;28;20465;-72
2022/03/08 03:20:12;;;;;;;14.20;10.37;;;;;;;-2.09;nan;98588.75;5057156;28;20480;-72
2022/03/08 03:22:38;;;;;;;10.50;9.40;;;;;;;-2.06;nan;98582.44;5057069;28;20422;-72
2022/03/08 03:25:06;;;;;;;14.73;10.47;;;;;;;-2.06;nan;98582.44;5057117;28;20430;-72
2022/03/08 03:27:33;;;;;;;12.73;9.90;;;;;;;-2.04;nan;98583.97;5057148;28;20437;-72
2022/03/08 03:29:59;;;;;;;16.07;10.30;;;;;;;-2.01;nan;98578.53;5056725;28;20757;-72
2022/03/08 03:32:26;;;;;;;12.13;9.90;;;;;;;-2.01;nan;98570.69;5057048;28;20446;-73
2022/03/08 03:34:52;;;;;;;11.27;10.03;;;;;;;-1.99;nan;98573.19;5056997;28;20438;-72
2022/03/08 03:37:20;;;;;;;11.93;9.20;;;;;;;-1.99;nan;98568.78;5056989;28;20462;-72
2022/03/08 03:39:46;;;;;;;12.20;10.17;;;;;;;-1.97;nan;98569.50;5056796;28;20468;-72
2022/03/08 03:42:12;;;;;;;12.50;9.77;;;;;;;-1.98;nan;98569.63;5057044;28;20438;-72
2022/03/08 03:44:39;;;;;;;11.43;9.87;;;;;;;-2.09;nan;98570.50;5056529;28;20441;-72
2022/03/08 03:47:06;;;;;;;11.63;9.70;;;;;;;-2.06;nan;98575.47;5056764;28;20430;-72
2022/03/08 03:49:32;;;;;;;15.27;9.73;;;;;;;-2.09;nan;98570.50;5056737;28;20525;-72
2022/03/08 03:51:58;;;;;;;12.90;9.93;;;;;;;-2.16;nan;98564.16;5056462;28;20418;-72
2022/03/08 03:54:25;;;;;;;12.10;10.20;;;;;;;-2.17;nan;98574.72;5056711;28;20739;-72
2022/03/08 03:56:51;;;;;;;11.67;9.17;;;;;;;-2.18;nan;98575.66;5056652;28;20728;-72
2022/03/08 03:59:18;;;;;;;12.60;10.00;;;;;;;-2.14;nan;98569.22;5056963;28;20470;-72
2022/03/08 04:01:44;;;;;;;11.43;9.23;;;;;;;-2.15;nan;98568.44;5056142;28;20478;-72
2022/03/08 04:04:11;;;;;;;13.00;9.83;;;;;;;-2.15;nan;98571.03;5056438;28;20718;-72
2022/03/08 04:06:37;;;;;;;13.73;9.67;;;;;;;-2.13;nan;98563.91;5056192;28;20442;-72
2022/03/08 04:09:04;;;;;;;12.87;9.57;;;;;;;-2.12;nan;98564.75;5056467;28;20450;-72
2022/03/08 04:11:31;;;;;;;10.93;9.23;;;;;;;-2.12;nan;98568.16;5056135;28;20430;-72
2022/03/08 04:13:58;;;;;;;12.97;9.93;;;;;;;-2.14;nan;98567.47;5056289;28;20434;-72
2022/03/08 04:16:24;;;;;;;12.77;9.00;;;;;;;-2.09;nan;98567.91;5056433;28;20444;-72
2022/03/08 04:18:51;;;;;;;11.33;9.13;;;;;;;-2.08;nan;98568.75;5055942;28;20913;-72
2022/03/08 04:21:17;;;;;;;11.57;9.07;;;;;;;-2.19;nan;98567.03;5056155;28;20774;-72
2022/03/08 04:23:44;;;;;;;11.37;9.20;;;;;;;-2.19;nan;98574.84;5056386;28;20450;-72
2022/03/08 04:26:10;;;;;;;11.57;9.43;;;;;;;-2.18;nan;98568.66;5056191;28;20441;-72
2022/03/08 04:28:37;;;;;;;15.30;9.27;;;;;;;-2.17;nan;98566.91;5056161;28;20455;-73
2022/03/08 04:31:03;;;;;;;12.93;10.20;;;;;;;-2.16;nan;98568.53;5056186;28;20449;-73
2022/03/08 04:33:29;;;;;;;10.70;8.90;;;;;;;-2.19;nan;98561.81;5056402;28;20464;-72
2022/03/08 04:35:56;;;;;;;11.43;8.80;;;;;;;-2.21;nan;98566.31;5055826;28;20870;-72
2022/03/08 04:38:22;;;;;;;13.60;9.97;;;;;;;-2.28;nan;98570.38;5055950;28;20480;-72
2022/03/08 04:40:49;;;;;;;10.23;8.83;;;;;;;-2.11;nan;98554.19;5055882;28;20470;-72
2022/03/08 04:43:15;;;;;;;11.73;9.00;;;;;;;-2.13;nan;98557.84;5055740;28;20430;-73
2022/03/08 04:45:41;;;;;;;11.13;8.93;;;;;;;-2.10;nan;98560.22;5055551;28;20861;-72
2022/03/08 04:48:08;;;;;;;11.30;9.43;;;;;;;-2.18;nan;98554.81;5055681;28;20462;-72
2022/03/08 04:50:34;;;;;;;13.77;9.90;;;;;;;-2.21;nan;98550.69;5056057;28;20418;-72
2022/03/08 04:53:00;;;;;;;11.50;8.93;;;;;;;-2.14;nan;98561.41;5056006;28;20430;-72
2022/03/08 04:55:27;;;;;;;13.10;9.47;;;;;;;-2.16;nan;98558.13;5055839;28;20453;-72
2022/03/08 04:57:53;;;;;;;13.07;9.70;;;;;;;-2.17;nan;98565.09;5055503;28;20441;-72
2022/03/08 05:00:19;;;;;;;12.83;9.03;;;;;;;-2.21;nan;98553.28;5055587;28;20470;-72
2022/03/08 05:02:46;;;;;;;11.73;8.63;;;;;;;-2.04;nan;98557.09;5055438;28;20866;-72
2022/03/08 05:05:14;;;;;;;13.10;9.00;;;;;;;-2.15;nan;98560.63;5055699;28;20418;-72
2022/03/08 05:07:42;;;;;;;15.47;9.80;;;;;;;-2.13;nan;98552.66;5055709;28;20429;-73
2022/03/08 05:10:11;;;;;;;13.13;8.70;;;;;;;-2.19;nan;98547.97;5055610;28;20458;-72
2022/03/08 05:12:39;;;;;;;11.73;9.83;;;;;;;-2.20;nan;98559.34;5055730;28;20442;-72
2022/03/08 05:15:06;;;;;;;11.67;8.97;;;;;;;-2.20;nan;98557.56;5055904;28;20422;-72
2022/03/08 05:17:33;;;;;;;12.03;8.93;;;;;;;-2.29;nan;98550.53;5055648;28;20454;-72
2022/03/08 05:19:59;;;;;;;10.43;8.80;;;;;;;-2.39;nan;98554.81;5055295;28;20495;-73
2022/03/08 05:22:26;;;;;;;12.97;8.63;;;;;;;-2.48;nan;98557.38;5056076;28;20715;-72
2022/03/08 05:24:52;;;;;;;11.57;8.93;;;;;;;-2.45;nan;98546.69;5059286;28;20688;-72
2022/03/08 05:27:18;;;;;;;13.07;9.00;;;;;;;-2.49;nan;98550.50;5059318;28;20422;-73
2022/03/08 05:29:45;;;;;;;11.67;9.17;;;;;;;-2.48;nan;98552.97;5059110;28;20464;-72
2022/03/08 05:32:11;;;;;;;14.33;9.23;;;;;;;-2.56;nan;98544.97;5059120;28;20433;-72
2022/03/08 05:34:37;;;;;;;11.03;9.17;;;;;;;-2.56;nan;98544.97;5059607;28;20719;-72
2022/03/08 05:37:04;;;;;;;12.17;8.90;;;;;;;-2.55;nan;98546.63;5058867;28;20726;-72
2022/03/08 05:39:30;;;;;;;12.40;9.27;;;;;;;-2.47;nan;98544.22;5058633;28;20454;-72
2022/03/08 05:41:57;;;;;;;11.73;9.47;;;;;;;-2.50;nan;98546.22;5058253;28;20465;-72
2022/03/08 05:44:23;;;;;;;13.17;9.10;;;;;;;-2.51;nan;98547.19;5058423;28;20442;-72
2022/03/08 05:46:50;;;;;;;13.20;9.33;;;;;;;-2.56;nan;98550.19;5059018;28;20427;-72
2022/03/08 05:49:16;;;;;;;17.63;10.57;;;;;;;-2.54;nan;98547.44;5058576;28;20775;-72
2022/03/08 05:51:43;;;;;;;11.60;9.03;;;;;;;-2.55;nan;98557.03;5058772;28;20426;-72
2022/03/08 05:54:09;;;;;;;12.70;9.00;;;;;;;-2.53;nan;98544.72;5058351;28;20438;-72
2022/03/08 05:56:36;;;;;;;11.23;8.40;;;;;;;-2.42;nan;98549.88;5058031;28;20873;-72
2022/03/08 05:59:02;;;;;;;11.47;9.27;;;;;;;-2.46;nan;98548.47;5058240;28;20454;-72
2022/03/08 06:01:29;;;;;;;12.23;9.00;;;;;;;-2.41;nan;98554.13;5058148;28;20474;-72
2022/03/08 06:03:55;;;;;;;12.50;9.57;;;;;;;-2.41;nan;98554.13;5058268;28;20428;-72
2022/03/08 06:06:21;;;;;;;11.03;8.63;;;;;;;-2.32;nan;98548.16;5057995;28;20423;-72
2022/03/08 06:08:49;;;;;;;11.23;8.30;;;;;;;-2.31;nan;98544.59;5059094;28;20718;-72
2022/03/08 06:11:16;;;;;;;11.87;9.20;;;;;;;-2.29;nan;98554.88;5057597;28;20440;-72
2022/03/08 06:13:42;;;;;;;12.20;8.83;;;;;;;-2.23;nan;98560.41;5057702;28;20874;-72
2022/03/08 06:16:09;;;;;;;13.13;8.93;;;;;;;-2.15;nan;98564.97;5058042;28;20423;-72
2022/03/08 06:18:35;;;;;;;10.60;8.47;;;;;;;-2.15;nan;98570.19;5057629;28;20749;-72
2022/03/08 06:21:01;;;;;;;11.53;8.67;;;;;;;-2.10;nan;98573.25;5057554;28;20485;-72
2022/03/08 06:23:28;;;;;;;11.50;8.27;;;;;;;-2.07;nan;98581.63;5057507;28;20434;-72
2022/03/08 06:25:54;;;;;;;13.47;7.87;;;;;;;-1.96;nan;98573.75;5057483;28;20429;-72
2022/03/08 06:28:21;;;;;;;16.80;9.50;;;;;;;-1.86;nan;98587.66;5057080;28;20450;-73
2022/03/08 06:30:47;;;;;;;12.03;9.27;;;;;;;-1.82;nan;98577.78;5057565;28;20422;-73
2022/03/08 06:33:14;;;;;;;14.57;9.63;;;;;;;-1.78;nan;98585.22;5057202;28;20776;-73
2022/03/08 06:35:40;;;;;;;14.80;9.27;;;;;;;-1.73;nan;98593.47;5057477;28;20754;-73
2022/03/08 06:38:07;;;;;;;13.27;9.83;;;;;;;-1.74;nan;98588.38;5057613;28;20708;-73
2022/03/08 06:40:33;;;;;;;15.77;9.83;;;;;;;-1.76;nan;98592.91;5057646;28;20431;-73
2022/03/08 06:42:59;;;;;;;12.17;9.30;;;;;;;-1.65;nan;98591.06;5057663;28;20428;-73
2022/03/08 06:45:26;;;;;;;12.27;8.50;;;;;;;-1.49;nan;98593.19;5057091;28;20426;-73
2022/03/08 06:47:52;;;;;;;13.53;8.43;;;;;;;-1.37;nan;98590.34;5056861;28;20868;-73
2022/03/08 06:50:18;;;;;;;11.90;8.97;;;;;;;-1.37;nan;98590.34;5056630;28;20846;-73
2022/03/08 06:52:45;;;;;;;12.13;8.57;;;;;;;-1.31;nan;98599.44;5057085;28;20904;-72
2022/03/08 06:55:11;;;;;;;12.23;7.37;;;;;;;-1.12;nan;98599.50;5056983;28;20465;-72
2022/03/08 06:57:38;;;;;;;9.87;7.30;;;;;;;-1.02;nan;98601.19;5056819;28;20850;-72
2022/03/08 07:00:07;;;;;;;11.60;8.03;;;;;;;-0.96;nan;98610.22;5056729;28;20461;-72
2022/03/08 07:02:34;;;;;;;8.77;7.17;;;;;;;-0.84;nan;98614.38;5056939;28;20462;-72
2022/03/08 07:05:02;;;;;;;11.57;7.80;;;;;;;-0.79;nan;98612.19;5056892;28;20454;-72
2022/03/08 07:07:29;;;;;;;8.73;7.57;;;;;;;-0.69;nan;98616.47;5056879;28;20426;-72
2022/03/08 07:09:55;;;;;;;10.07;7.17;;;;;;;-0.59;nan;98613.84;5056701;28;20489;-72
2022/03/08 07:12:22;;;;;;;10.00;7.57;;;;;;;-0.59;nan;98614.69;5056603;28;20414;-73
2022/03/08 07:14:48;;;;;;;8.07;6.83;;;;;;;-0.49;nan;98612.91;5056483;28;20788;-73
2022/03/08 07:17:14;;;;;;;8.33;6.80;;;;;;;-0.37;nan;98608.38;5057427;28;20708;-73
2022/03/08 07:19:41;;;;;;;9.57;7.30;;;;;;;-0.37;nan;98611.81;5056706;28;20515;-73
2022/03/08 07:22:07;;;;;;;7.47;6.77;;;;;;;-0.18;nan;98603.97;5056391;28;20995;-73
2022/03/08 07:24:34;;;;;;;7.00;5.47;;;;;;;-0.03;nan;98592.13;5056605;28;20430;-73
2022/03/08 07:27:00;;;;;;;7.90;6.70;;;;;;;0.12;nan;98596.94;5056474;28;20749;-73
2022/03/08 07:29:27;;;;;;;8.47;6.10;;;;;;;0.22;nan;98595.94;5056506;28;20457;-73
2022/03/08 07:31:53;;;;;;;9.17;6.83;;;;;;;0.23;nan;98597.59;5056064;28;20418;-72
2022/03/08 07:34:21;;;;;;;7.30;5.97;;;;;;;0.26;nan;98602.53;5055944;28;20429;-72
2022/03/08 07:36:47;;;;;;;10.33;6.43;;;;;;;0.38;nan;98600.56;5056289;28;20808;-72
2022/03/08 07:39:13;;;;;;;8.30;6.17;;;;;;;0.42;nan;98594.94;5055858;28;20889;-72
2022/03/08 07:41:40;;;;;;;8.00;6.33;;;;;;;0.52;nan;98597.50;5056003;28;20481;-72
2022/03/08 07:44:06;;;;;;;6.73;5.63;;;;;;;0.64;nan;98594.56;5056192;28;20434;-72
2022/03/08 07:46:32;;;;;;;7.47;5.60;;;;;;;0.70;nan;98603.63;5055593;28;20438;-72
2022/03/08 07:48:59;;;;;;;6.90;6.00;;;;;;;0.77;nan;98597.66;5056184;28;20457;-72
2022/03/08 07:51:26;;;;;;;8.77;5.83;;;;;;;0.92;nan;98604.09;5056294;28;20434;-72
2022/03/08 07:53:52;;;;;;;6.87;5.80;;;;;;;0.83;nan;98609.34;5056661;28;20438;-72
2022/03/08 07:56:19;;;;;;;9.33;6.23;;;;;;;0.85;nan;98610.84;5056135;28;20208;-72
2022/03/08 07:58:46;;;;;;;8.07;6.17;;;;;;;1.00;nan;98611.22;5056156;28;20462;-72
2022/03/08 08:01:13;;;;;;;7.43;5.97;;;;;;;1.18;nan;98612.06;5055977;28;20311;-72
2022/03/08 08:03:39;;;;;;;6.67;6.03;;;;;;;1.26;nan;98609.56;5056067;28;20430;-72
2022/03/08 08:06:06;;;;;;;7.57;6.73;;;;;;;1.40;nan;98619.53;5055975;28;20205;-72
2022/03/08 08:08:32;;;;;;;8.53;6.17;;;;;;;1.47;nan;98620.56;5055709;28;20222;-72
2022/03/08 08:10:59;;;;;;;9.03;6.40;;;;;;;1.46;nan;98622.38;5055952;28;20195;-72
2022/03/08 08:13:25;;;;;;;8.83;6.87;;;;;;;1.49;nan;98616.81;5056200;28;20287;-72
2022/03/08 08:15:51;;;;;;;8.37;6.43;;;;;;;1.39;nan;98613.44;5056059;28;20189;-72
2022/03/08 08:18:18;;;;;;;9.87;6.50;;;;;;;1.75;nan;98611.69;5055538;28;20671;-73
2022/03/08 08:20:44;;;;;;;7.80;6.83;;;;;;;1.63;nan;98607.63;5055851;28;20201;-73
2022/03/08 08:23:10;;;;;;;8.37;6.80;;;;;;;1.55;nan;98618.03;5055761;28;20205;-73
2022/03/08 08:25:37;;;;;;;11.83;6.87;;;;;;;1.83;nan;98615.19;5055655;28;20193;-72
2022/03/08 08:28:06;;;;;;;9.83;6.40;;;;;;;1.73;nan;98618.84;5055485;28;20512;-72
2022/03/08 08:30:33;;;;;;;8.10;7.00;;;;;;;1.78;nan;98616.59;5055875;28;20213;-72
2022/03/08 08:33:00;;;;;;;7.57;6.70;;;;;;;1.94;nan;98622.00;5055572;28;20182;-73
2022/03/08 08:35:26;;;;;;;9.70;7.63;;;;;;;1.92;nan;98609.03;5055952;28;20216;-72
2022/03/08 08:37:53;;;;;;;7.70;6.40;;;;;;;2.11;nan;98608.03;5056463;28;20193;-72
2022/03/08 08:40:19;;;;;;;7.87;6.60;;;;;;;2.12;nan;98609.69;5055877;28;20204;-72
2022/03/08 08:42:45;;;;;;;9.27;7.20;;;;;;;2.01;nan;98613.38;5055857;28;20227;-73
2022/03/08 08:45:13;;;;;;;8.50;7.57;;;;;;;2.01;nan;98616.00;5055752;28;20208;-72
2022/03/08 08:47:39;;;;;;;9.87;7.17;;;;;;;2.28;nan;98615.03;5055887;28;20197;-73
2022/03/08 08:50:06;;;;;;;7.77;6.97;;;;;;;2.24;nan;98611.91;5055845;28;20237;-73
2022/03/08 08:52:33;;;;;;;10.50;7.87;;;;;;;2.55;nan;98601.78;5055968;28;20197;-73
2022/03/08 08:55:00;;;;;;;9.67;6.93;;;;;;;2.58;nan;98598.84;5055887;28;20201;-73
2022/03/08 08:57:28;;;;;;;7.73;6.90;;;;;;;2.94;nan;98597.72;5058375;28;20213;-72
2022/03/08 08:59:54;;;;;;;6.77;6.17;;;;;;;3.06;nan;98588.53;5059533;28;20259;-72
2022/03/08 09:02:20;;;;;;;8.00;6.70;;;;;;;3.18;nan;98590.75;5059160;28;20232;-72
2022/03/08 09:04:47;;;;;;;12.07;5.40;;;;;;;3.68;nan;98582.78;5059666;28;20288;-72
2022/03/08 09:07:13;;;;;;;6.00;5.40;;;;;;;3.61;nan;98579.97;5059754;28;20212;-72
2022/03/08 09:09:39;;;;;;;6.00;4.67;;;;;;;3.66;nan;98585.56;5059501;28;20227;-73
2022/03/08 09:12:06;;;;;;;6.47;4.77;;;;;;;3.71;nan;98585.09;5059552;28;20201;-73
2022/03/08 09:14:33;;;;;;;7.37;5.50;;;;;;;3.73;nan;98585.75;5059350;28;20277;-73
2022/03/08 09:16:59;;;;;;;7.33;5.10;;;;;;;3.80;nan;98578.84;5059527;28;20220;-73
2022/03/08 09:19:26;;;;;;;5.07;4.60;;;;;;;3.95;nan;98571.94;5059325;28;20560;-73
2022/03/08 09:21:52;;;;;;;6.83;5.03;;;;;;;3.88;nan;98581.50;5059499;28;20328;-72
2022/03/08 09:24:18;;;;;;;5.40;4.77;;;;;;;3.94;nan;98572.94;5059151;28;20554;-73
2022/03/08 09:26:45;;;;;;;6.07;4.93;;;;;;;4.06;nan;98580.31;5058897;28;20206;-73
2022/03/08 09:29:11;;;;;;;6.07;4.90;;;;;;;4.13;nan;98570.78;5058951;28;20221;-73
2022/03/08 09:31:37;;;;;;;5.80;5.20;;;;;;;4.24;nan;98573.06;5058986;28;20194;-73
2022/03/08 09:34:04;;;;;;;6.90;5.00;;;;;;;4.38;nan;98574.22;5058501;28;20201;-73
2022/03/08 09:36:30;;;;;;;6.13;5.03;;;;;;;4.60;nan;98574.31;5058761;28;20204;-73
2022/03/08 09:38:58;;;;;;;5.83;5.30;;;;;;;4.62;nan;98577.59;5058560;28;20236;-73
2022/03/08 09:41:25;;;;;;;7.63;4.97;;;;;;;4.76;nan;98571.66;5058755;28;20278;-73
2022/03/08 09:43:51;;;;;;;7.00;5.07;;;;;;;4.86;nan;98579.34;5058892;28;20256;-72
2022/03/08 09:46:18;;;;;;;6.70;4.13;;;;;;;4.68;nan;98587.47;5058814;28;20201;-72
2022/03/08 09:48:44;;;;;;;5.30;4.67;;;;;;;4.60;nan;98573.47;5058782;28;20309;-73
2022/03/08 09:51:11;;;;;;;5.63;5.13;;;;;;;4.77;nan;98572.44;5058572;28;20251;-73
2022/03/08 09:53:39;;;;;;;5.97;5.17;;;;;;;4.63;nan;98583.69;5058412;28;20212;-73
2022/03/08 09:56:06;;;;;;;6.40;5.30;;;;;;;4.57;nan;98572.00;5058629;28;20205;-73
2022/03/08 09:58:33;;;;;;;5.90;4.83;;;;;;;4.90;nan;98567.47;5058723;28;20233;-73
2022/03/08 10:01:02;;;;;;;5.77;5.13;;;;;;;4.92;nan;98562.84;5058428;28;20546;-72
2022/03/08 10:03:38;;;;;;;5.13;4.53;;;;;;;5.07;nan;98555.88;5058640;28;20225;-72
2022/03/08 10:06:05;;;;;;;5.60;4.47;;;;;;;5.31;nan;98553.94;5058486;28;20193;-73
2022/03/08 10:08:32;;;;;;;5.10;4.47;;;;;;;5.37;nan;98555.03;5057462;28;20671;-73
2022/03/08 10:11:01;;;;;;;192.07;154.77;;;;;;;5.48;nan;98552.00;5058302;28;20189;-73
2022/03/08 10:13:31;;;;;;;5.53;4.27;;;;;;;5.68;nan;98554.00;5058028;28;20600;-73
2022/03/08 10:16:05;;;;;;;10.90;10.20;;;;;;;5.66;nan;98550.72;5058284;28;20189;-73
2022/03/08 10:18:37;;;;;;;70.80;66.03;;;;;;;5.86;nan;98553.72;5058179;28;20232;-73
2022/03/08 10:21:05;;;;;;;259.70;248.93;;;;;;;5.73;nan;98549.03;5058368;28;20190;-73
2022/03/08 10:23:42;;;;;;;546.50;519.77;;;;;;;5.78;nan;98545.84;5058176;28;20213;-72
2022/03/08 10:26:12;;;;;;;1533.70;849.77;;;;;;;5.70;nan;98554.66;5058193;28;20189;-72
2022/03/08 10:28:51;;;;;;;6.37;3.93;;;;;;;5.72;nan;98544.75;5057998;28;20225;-72
2022/03/08 10:31:18;;;;;;;6.20;4.70;;;;;;;5.51;nan;98541.94;5057939;28;20200;-73
2022/03/08 10:33:45;;;;;;;5.43;4.93;;;;;;;5.72;nan;98538.66;5058089;28;20205;-73
2022/03/08 10:36:17;;;;;;;34.70;32.83;;;;;;;5.74;nan;98540.09;5057918;28;20201;-73
2022/03/08 10:39:04;;;;;;;5.23;4.40;;;;;;;5.61;nan;98534.59;5057943;28;20217;-73
2022/03/08 10:41:30;;;;;;;7.40;5.37;;;;;;;5.67;nan;98536.56;5057552;28;20181;-72
2022/03/08 10:43:57;;;;;;;5.30;4.80;;;;;;;5.82;nan;98536.59;5057822;28;20322;-72
2022/03/08 10:46:24;;;;;;;4.53;3.97;;;;;;;5.95;nan;98534.19;5057612;28;20190;-72
2022/03/08 10:48:53;;;;;;;9.03;5.60;;;;;;;5.83;nan;98530.38;5057633;28;20221;-73
2022/03/08 10:51:19;;;;;;;1999.90;999.90;;;;;;;5.88;nan;98531.44;5057499;28;20189;-73
2022/03/08 10:53:46;;;;;;;1999.90;999.90;;;;;;;6.05;nan;98527.69;5057508;28;20201;-73
2022/03/08 10:56:20;;;;;;;1999.90;999.90;;;;;;;6.23;nan;98520.25;5057541;28;20508;-73
2022/03/08 10:58:52;;;;;;;1999.90;999.90;;;;;;;6.25;nan;98523.50;5057393;28;20227;-73
2022/03/08 11:01:18;;;;;;;1999.90;999.90;;;;;;;6.18;nan;98519.13;5057050;28;20213;-72
2022/03/08 11:03:58;;;;;;;1999.90;999.90;;;;;;;6.48;nan;98511.06;5057136;28;20509;-73
2022/03/08 11:06:26;;;;;;;1999.90;999.90;;;;;;;6.22;nan;98517.78;5056992;28;20201;-73
2022/03/08 11:08:54;;;;;;;1999.90;999.90;;;;;;;6.44;nan;98519.53;5057374;28;20236;-73
2022/03/08 11:11:21;;;;;;;1999.90;999.90;;;;;;;6.25;nan;98514.78;5056798;28;20229;-73
2022/03/08 11:13:51;;;;;;;1999.90;999.90;;;;;;;6.50;nan;98510.88;5056932;28;20191;-73
2022/03/08 11:16:19;;;;;;;1999.90;999.90;;;;;;;6.54;nan;98499.78;5057000;28;20209;-73
2022/03/08 11:18:50;;;;;;;1999.90;999.90;;;;;;;6.60;nan;98503.50;5056892;28;20299;-72
2022/03/08 11:21:18;;;;;;;1999.90;999.90;;;;;;;6.74;nan;98500.03;5055918;28;20204;-72
2022/03/08 11:23:45;;;;;;;1999.90;999.90;;;;;;;6.52;nan;98491.19;5056733;28;20225;-72
2022/03/08 11:26:15;;;;;;;1999.90;999.90;;;;;;;6.83;nan;98496.28;5056789;28;20335;-72
2022/03/08 11:28:46;;;;;;;1336.80;669.97;;;;;;;6.96;nan;98481.41;5056730;28;20221;-73
2022/03/08 11:31:17;;;;;;;99.53;92.63;;;;;;;7.03;nan;98498.16;5056801;28;20194;-73
2022/03/08 11:34:00;;;;;;;1385.93;705.83;;;;;;;6.90;nan;98489.25;5056916;28;20190;-73
2022/03/08 11:36:39;;;;;;;275.00;262.37;;;;;;;7.02;nan;98490.41;5056531;28;20189;-73
2022/03/08 11:39:27;;;;;;;208.53;200.40;;;;;;;6.87;nan;98495.72;5056553;28;20225;-73
2022/03/08 11:41:56;;;;;;;145.37;139.87;;;;;;;6.75;nan;98491.09;5056350;28;20238;-73